sensor_id;sensor_type;location;lat;lon;timestamp;P1;durP1;ratioP1;P2;durP2;ratioP2
22005;SDS011;11167;46.988;15.470;2023-08-01T00:00:40;1.62;;;1.42;;
22005;SDS011;11167;46.988;15.470;2023-08-01T00:02:41;1.75;;;1.50;;
22005;SDS011;11167;46.988;15.470;2023-08-01T00:04:42;1.70;;;1.60;;
22005;SDS011;11167;46.988;15.470;2023-08-01T00:06:43;2.12;;;1.52;;
22005;SDS011;11167;46.988;15.470;2023-08-01T00:08:44;2.00;;;1.80;;
22005;SDS011;11167;46.988;15.470;2023-08-01T00:10:46;1.82;;;1.50;;
22005;SDS011;11167;46.988;15.470;2023-08-01T00:12:47;1.32;;;1.22;;
22005;SDS011;11167;46.988;15.470;2023-08-01T00:14:48;1.92;;;1.70;;
22005;SDS011;11167;46.988;15.470;2023-08-01T00:16:50;1.50;;;1.37;;
22005;SDS011;11167;46.988;15.470;2023-08-01T00:18:51;1.30;;;1.20;;
22005;SDS011;11167;46.988;15.470;2023-08-01T00:20:52;1.70;;;1.50;;
22005;SDS011;11167;46.988;15.470;2023-08-01T00:22:54;1.67;;;1.42;;
22005;SDS011;11167;46.988;15.470;2023-08-01T00:24:55;1.37;;;1.27;;
22005;SDS011;11167;46.988;15.470;2023-08-01T00:26:56;2.65;;;1.50;;
22005;SDS011;11167;46.988;15.470;2023-08-01T00:28:57;3.05;;;1.50;;
22005;SDS011;11167;46.988;15.470;2023-08-01T00:31:02;1.67;;;1.57;;
22005;SDS011;11167;46.988;15.470;2023-08-01T00:33:09;1.52;;;1.42;;
22005;SDS011;11167;46.988;15.470;2023-08-01T00:35:10;1.60;;;1.50;;
22005;SDS011;11167;46.988;15.470;2023-08-01T00:37:11;1.72;;;1.60;;
22005;SDS011;11167;46.988;15.470;2023-08-01T00:39:11;2.25;;;1.50;;
22005;SDS011;11167;46.988;15.470;2023-08-01T00:41:12;1.60;;;1.50;;
22005;SDS011;11167;46.988;15.470;2023-08-01T00:43:14;1.75;;;1.50;;
22005;SDS011;11167;46.988;15.470;2023-08-01T00:45:15;1.90;;;1.70;;
22005;SDS011;11167;46.988;15.470;2023-08-01T00:47:16;2.58;;;1.70;;
22005;SDS011;11167;46.988;15.470;2023-08-01T00:49:17;1.77;;;1.67;;
22005;SDS011;11167;46.988;15.470;2023-08-01T00:51:18;2.70;;;1.70;;
22005;SDS011;11167;46.988;15.470;2023-08-01T00:53:20;1.52;;;1.42;;
22005;SDS011;11167;46.988;15.470;2023-08-01T00:55:21;2.25;;;1.75;;
22005;SDS011;11167;46.988;15.470;2023-08-01T00:57:23;2.08;;;1.65;;
22005;SDS011;11167;46.988;15.470;2023-08-01T00:59:24;1.77;;;1.67;;
22005;SDS011;11167;46.988;15.470;2023-08-01T01:01:25;1.82;;;1.65;;
22005;SDS011;11167;46.988;15.470;2023-08-01T01:03:27;2.47;;;1.77;;
22005;SDS011;11167;46.988;15.470;2023-08-01T01:05:30;2.27;;;1.60;;
22005;SDS011;11167;46.988;15.470;2023-08-01T01:07:35;3.27;;;1.52;;
22005;SDS011;11167;46.988;15.470;2023-08-01T01:09:37;1.60;;;1.50;;
22005;SDS011;11167;46.988;15.470;2023-08-01T01:11:38;1.50;;;1.37;;
22005;SDS011;11167;46.988;15.470;2023-08-01T01:13:40;2.00;;;1.52;;
22005;SDS011;11167;46.988;15.470;2023-08-01T01:15:41;1.67;;;1.57;;
22005;SDS011;11167;46.988;15.470;2023-08-01T01:17:42;1.75;;;1.50;;
22005;SDS011;11167;46.988;15.470;2023-08-01T01:19:44;1.82;;;1.52;;
22005;SDS011;11167;46.988;15.470;2023-08-01T01:22:04;1.90;;;1.80;;
22005;SDS011;11167;46.988;15.470;2023-08-01T01:24:08;1.50;;;1.40;;
22005;SDS011;11167;46.988;15.470;2023-08-01T01:26:10;1.70;;;1.60;;
22005;SDS011;11167;46.988;15.470;2023-08-01T01:28:13;1.70;;;1.60;;
22005;SDS011;11167;46.988;15.470;2023-08-01T01:30:15;1.67;;;1.57;;
22005;SDS011;11167;46.988;15.470;2023-08-01T01:32:16;2.05;;;1.60;;
22005;SDS011;11167;46.988;15.470;2023-08-01T01:34:18;1.60;;;1.50;;
22005;SDS011;11167;46.988;15.470;2023-08-01T01:36:19;2.85;;;1.60;;
22005;SDS011;11167;46.988;15.470;2023-08-01T01:38:20;1.50;;;1.40;;
22005;SDS011;11167;46.988;15.470;2023-08-01T01:40:21;1.50;;;1.40;;
22005;SDS011;11167;46.988;15.470;2023-08-01T01:42:22;1.35;;;1.25;;
22005;SDS011;11167;46.988;15.470;2023-08-01T01:44:23;2.08;;;1.87;;
22005;SDS011;11167;46.988;15.470;2023-08-01T01:46:24;1.72;;;1.62;;
22005;SDS011;11167;46.988;15.470;2023-08-01T01:48:25;1.55;;;1.45;;
22005;SDS011;11167;46.988;15.470;2023-08-01T01:50:26;1.60;;;1.50;;
22005;SDS011;11167;46.988;15.470;2023-08-01T01:52:27;2.00;;;1.80;;
22005;SDS011;11167;46.988;15.470;2023-08-01T01:54:28;2.15;;;1.70;;
22005;SDS011;11167;46.988;15.470;2023-08-01T01:56:29;2.12;;;1.80;;
22005;SDS011;11167;46.988;15.470;2023-08-01T01:58:30;1.90;;;1.50;;
22005;SDS011;11167;46.988;15.470;2023-08-01T02:00:31;1.92;;;1.72;;
22005;SDS011;11167;46.988;15.470;2023-08-01T02:02:32;1.82;;;1.60;;
22005;SDS011;11167;46.988;15.470;2023-08-01T02:04:33;2.05;;;1.60;;
22005;SDS011;11167;46.988;15.470;2023-08-01T02:06:34;2.10;;;1.90;;
22005;SDS011;11167;46.988;15.470;2023-08-01T02:08:36;1.67;;;1.50;;
22005;SDS011;11167;46.988;15.470;2023-08-01T02:10:37;2.02;;;1.82;;
22005;SDS011;11167;46.988;15.470;2023-08-01T02:12:39;1.60;;;1.32;;
22005;SDS011;11167;46.988;15.470;2023-08-01T02:14:40;1.47;;;1.37;;
22005;SDS011;11167;46.988;15.470;2023-08-01T02:16:41;2.15;;;1.95;;
22005;SDS011;11167;46.988;15.470;2023-08-01T02:18:43;1.70;;;1.60;;
22005;SDS011;11167;46.988;15.470;2023-08-01T02:20:43;2.75;;;1.72;;
22005;SDS011;11167;46.988;15.470;2023-08-01T02:22:45;1.70;;;1.60;;
22005;SDS011;11167;46.988;15.470;2023-08-01T02:24:46;1.85;;;1.62;;
22005;SDS011;11167;46.988;15.470;2023-08-01T02:26:49;3.33;;;1.67;;
22005;SDS011;11167;46.988;15.470;2023-08-01T02:28:50;1.62;;;1.47;;
22005;SDS011;11167;46.988;15.470;2023-08-01T02:30:51;2.25;;;1.62;;
22005;SDS011;11167;46.988;15.470;2023-08-01T02:32:52;2.12;;;1.50;;
22005;SDS011;11167;46.988;15.470;2023-08-01T02:34:53;1.42;;;1.32;;
22005;SDS011;11167;46.988;15.470;2023-08-01T02:36:54;1.82;;;1.60;;
22005;SDS011;11167;46.988;15.470;2023-08-01T02:38:55;1.57;;;1.47;;
22005;SDS011;11167;46.988;15.470;2023-08-01T02:40:57;1.57;;;1.47;;
22005;SDS011;11167;46.988;15.470;2023-08-01T02:42:58;2.10;;;1.62;;
22005;SDS011;11167;46.988;15.470;2023-08-01T02:44:59;2.62;;;1.47;;
22005;SDS011;11167;46.988;15.470;2023-08-01T02:47:00;1.57;;;1.47;;
22005;SDS011;11167;46.988;15.470;2023-08-01T02:49:01;1.80;;;1.60;;
22005;SDS011;11167;46.988;15.470;2023-08-01T02:51:03;1.50;;;1.40;;
22005;SDS011;11167;46.988;15.470;2023-08-01T02:53:04;1.95;;;1.65;;
22005;SDS011;11167;46.988;15.470;2023-08-01T02:55:05;1.82;;;1.67;;
22005;SDS011;11167;46.988;15.470;2023-08-01T02:57:07;2.25;;;1.82;;
22005;SDS011;11167;46.988;15.470;2023-08-01T02:59:08;1.52;;;1.42;;
22005;SDS011;11167;46.988;15.470;2023-08-01T03:01:09;2.00;;;1.80;;
22005;SDS011;11167;46.988;15.470;2023-08-01T03:03:11;2.02;;;1.70;;
22005;SDS011;11167;46.988;15.470;2023-08-01T03:05:12;1.95;;;1.75;;
22005;SDS011;11167;46.988;15.470;2023-08-01T03:07:13;2.20;;;1.80;;
22005;SDS011;11167;46.988;15.470;2023-08-01T03:09:14;1.95;;;1.65;;
22005;SDS011;11167;46.988;15.470;2023-08-01T03:11:16;1.70;;;1.42;;
22005;SDS011;11167;46.988;15.470;2023-08-01T03:13:17;2.02;;;1.60;;
22005;SDS011;11167;46.988;15.470;2023-08-01T03:15:18;1.95;;;1.70;;
22005;SDS011;11167;46.988;15.470;2023-08-01T03:17:19;2.12;;;1.65;;
22005;SDS011;11167;46.988;15.470;2023-08-01T03:19:20;2.70;;;1.92;;
22005;SDS011;11167;46.988;15.470;2023-08-01T03:21:21;2.05;;;1.52;;
22005;SDS011;11167;46.988;15.470;2023-08-01T03:23:23;2.40;;;1.52;;
22005;SDS011;11167;46.988;15.470;2023-08-01T03:25:24;1.90;;;1.70;;
22005;SDS011;11167;46.988;15.470;2023-08-01T03:27:25;1.82;;;1.40;;
22005;SDS011;11167;46.988;15.470;2023-08-01T03:29:26;2.08;;;1.57;;
22005;SDS011;11167;46.988;15.470;2023-08-01T03:31:28;1.57;;;1.47;;
22005;SDS011;11167;46.988;15.470;2023-08-01T03:33:29;1.85;;;1.67;;
22005;SDS011;11167;46.988;15.470;2023-08-01T03:35:30;1.62;;;1.52;;
22005;SDS011;11167;46.988;15.470;2023-08-01T03:37:32;1.80;;;1.70;;
22005;SDS011;11167;46.988;15.470;2023-08-01T03:39:33;2.20;;;1.80;;
22005;SDS011;11167;46.988;15.470;2023-08-01T03:41:34;1.70;;;1.60;;
22005;SDS011;11167;46.988;15.470;2023-08-01T03:43:35;2.12;;;1.70;;
22005;SDS011;11167;46.988;15.470;2023-08-01T03:45:37;3.75;;;1.90;;
22005;SDS011;11167;46.988;15.470;2023-08-01T03:47:38;2.98;;;1.60;;
22005;SDS011;11167;46.988;15.470;2023-08-01T03:49:39;1.90;;;1.70;;
22005;SDS011;11167;46.988;15.470;2023-08-01T03:51:40;1.95;;;1.50;;
22005;SDS011;11167;46.988;15.470;2023-08-01T03:53:41;1.75;;;1.42;;
22005;SDS011;11167;46.988;15.470;2023-08-01T03:55:43;1.82;;;1.40;;
22005;SDS011;11167;46.988;15.470;2023-08-01T03:57:45;2.30;;;1.67;;
22005;SDS011;11167;46.988;15.470;2023-08-01T03:59:46;2.35;;;1.50;;
22005;SDS011;11167;46.988;15.470;2023-08-01T04:01:47;1.47;;;1.32;;
22005;SDS011;11167;46.988;15.470;2023-08-01T04:03:48;1.60;;;1.50;;
22005;SDS011;11167;46.988;15.470;2023-08-01T04:05:49;1.82;;;1.62;;
22005;SDS011;11167;46.988;15.470;2023-08-01T04:07:51;2.37;;;1.82;;
22005;SDS011;11167;46.988;15.470;2023-08-01T04:09:55;1.92;;;1.62;;
22005;SDS011;11167;46.988;15.470;2023-08-01T04:11:56;1.72;;;1.20;;
22005;SDS011;11167;46.988;15.470;2023-08-01T04:13:57;1.92;;;1.50;;
22005;SDS011;11167;46.988;15.470;2023-08-01T04:15:59;1.52;;;1.40;;
22005;SDS011;11167;46.988;15.470;2023-08-01T04:18:02;3.60;;;1.70;;
22005;SDS011;11167;46.988;15.470;2023-08-01T04:20:03;1.98;;;1.50;;
22005;SDS011;11167;46.988;15.470;2023-08-01T04:22:05;2.20;;;1.67;;
22005;SDS011;11167;46.988;15.470;2023-08-01T04:24:06;1.60;;;1.50;;
22005;SDS011;11167;46.988;15.470;2023-08-01T04:26:07;1.92;;;1.50;;
22005;SDS011;11167;46.988;15.470;2023-08-01T04:28:08;1.98;;;1.60;;
22005;SDS011;11167;46.988;15.470;2023-08-01T04:30:10;2.33;;;1.50;;
22005;SDS011;11167;46.988;15.470;2023-08-01T04:32:11;1.70;;;1.60;;
22005;SDS011;11167;46.988;15.470;2023-08-01T04:34:14;1.50;;;1.30;;
22005;SDS011;11167;46.988;15.470;2023-08-01T04:36:16;1.65;;;1.40;;
22005;SDS011;11167;46.988;15.470;2023-08-01T04:38:17;1.65;;;1.47;;
22005;SDS011;11167;46.988;15.470;2023-08-01T04:40:18;1.70;;;1.60;;
22005;SDS011;11167;46.988;15.470;2023-08-01T04:42:19;1.72;;;1.57;;
22005;SDS011;11167;46.988;15.470;2023-08-01T04:44:20;1.65;;;1.55;;
22005;SDS011;11167;46.988;15.470;2023-08-01T04:46:21;2.12;;;1.55;;
22005;SDS011;11167;46.988;15.470;2023-08-01T04:48:22;1.50;;;1.40;;
22005;SDS011;11167;46.988;15.470;2023-08-01T04:50:23;1.87;;;1.57;;
22005;SDS011;11167;46.988;15.470;2023-08-01T04:52:24;2.20;;;1.70;;
22005;SDS011;11167;46.988;15.470;2023-08-01T04:54:25;1.57;;;1.47;;
22005;SDS011;11167;46.988;15.470;2023-08-01T04:56:26;2.02;;;1.50;;
22005;SDS011;11167;46.988;15.470;2023-08-01T04:58:27;2.05;;;1.72;;
22005;SDS011;11167;46.988;15.470;2023-08-01T05:00:28;1.45;;;1.35;;
22005;SDS011;11167;46.988;15.470;2023-08-01T05:02:30;2.77;;;1.90;;
22005;SDS011;11167;46.988;15.470;2023-08-01T05:06:52;1.92;;;1.70;;
22005;SDS011;11167;46.988;15.470;2023-08-01T05:08:53;2.10;;;1.62;;
22005;SDS011;11167;46.988;15.470;2023-08-01T05:10:54;2.80;;;1.87;;
22005;SDS011;11167;46.988;15.470;2023-08-01T05:12:55;1.75;;;1.60;;
22005;SDS011;11167;46.988;15.470;2023-08-01T05:14:57;2.25;;;1.70;;
22005;SDS011;11167;46.988;15.470;2023-08-01T05:16:58;2.37;;;1.95;;
22005;SDS011;11167;46.988;15.470;2023-08-01T05:18:59;3.22;;;1.92;;
22005;SDS011;11167;46.988;15.470;2023-08-01T05:21:00;2.40;;;1.85;;
22005;SDS011;11167;46.988;15.470;2023-08-01T05:25:23;2.35;;;2.10;;
22005;SDS011;11167;46.988;15.470;2023-08-01T05:27:24;3.98;;;2.17;;
22005;SDS011;11167;46.988;15.470;2023-08-01T05:29:25;2.52;;;1.87;;
22005;SDS011;11167;46.988;15.470;2023-08-01T05:31:26;2.65;;;2.08;;
22005;SDS011;11167;46.988;15.470;2023-08-01T05:33:27;2.65;;;1.90;;
22005;SDS011;11167;46.988;15.470;2023-08-01T05:35:28;2.40;;;1.65;;
22005;SDS011;11167;46.988;15.470;2023-08-01T05:37:30;2.60;;;2.00;;
22005;SDS011;11167;46.988;15.470;2023-08-01T05:39:31;2.30;;;2.10;;
22005;SDS011;11167;46.988;15.470;2023-08-01T05:41:32;2.15;;;1.80;;
22005;SDS011;11167;46.988;15.470;2023-08-01T05:43:33;2.10;;;1.87;;
22005;SDS011;11167;46.988;15.470;2023-08-01T05:45:34;2.33;;;2.05;;
22005;SDS011;11167;46.988;15.470;2023-08-01T05:47:36;2.27;;;1.72;;
22005;SDS011;11167;46.988;15.470;2023-08-01T05:49:37;2.47;;;1.87;;
22005;SDS011;11167;46.988;15.470;2023-08-01T05:51:38;2.10;;;1.90;;
22005;SDS011;11167;46.988;15.470;2023-08-01T05:53:39;2.30;;;2.08;;
22005;SDS011;11167;46.988;15.470;2023-08-01T05:55:40;2.42;;;1.98;;
22005;SDS011;11167;46.988;15.470;2023-08-01T05:57:42;5.00;;;2.17;;
22005;SDS011;11167;46.988;15.470;2023-08-01T05:59:43;2.15;;;1.87;;
22005;SDS011;11167;46.988;15.470;2023-08-01T06:01:45;3.08;;;2.12;;
22005;SDS011;11167;46.988;15.470;2023-08-01T06:03:47;2.27;;;2.08;;
22005;SDS011;11167;46.988;15.470;2023-08-01T06:05:48;2.50;;;2.10;;
22005;SDS011;11167;46.988;15.470;2023-08-01T06:07:50;2.30;;;2.10;;
22005;SDS011;11167;46.988;15.470;2023-08-01T06:09:51;2.85;;;2.12;;
22005;SDS011;11167;46.988;15.470;2023-08-01T06:11:52;3.40;;;2.00;;
22005;SDS011;11167;46.988;15.470;2023-08-01T06:13:53;2.67;;;2.00;;
22005;SDS011;11167;46.988;15.470;2023-08-01T06:15:54;3.72;;;2.60;;
22005;SDS011;11167;46.988;15.470;2023-08-01T06:17:55;2.67;;;2.20;;
22005;SDS011;11167;46.988;15.470;2023-08-01T06:19:56;2.42;;;2.22;;
22005;SDS011;11167;46.988;15.470;2023-08-01T06:21:57;2.62;;;2.40;;
22005;SDS011;11167;46.988;15.470;2023-08-01T06:23:58;3.60;;;2.00;;
22005;SDS011;11167;46.988;15.470;2023-08-01T06:25:59;2.37;;;2.08;;
22005;SDS011;11167;46.988;15.470;2023-08-01T06:28:00;2.55;;;1.82;;
22005;SDS011;11167;46.988;15.470;2023-08-01T06:30:01;2.30;;;1.98;;
22005;SDS011;11167;46.988;15.470;2023-08-01T06:32:02;2.20;;;2.00;;
22005;SDS011;11167;46.988;15.470;2023-08-01T06:34:03;2.05;;;1.85;;
22005;SDS011;11167;46.988;15.470;2023-08-01T06:36:04;2.45;;;2.05;;
22005;SDS011;11167;46.988;15.470;2023-08-01T06:38:06;2.62;;;2.10;;
22005;SDS011;11167;46.988;15.470;2023-08-01T06:40:07;2.22;;;2.02;;
22005;SDS011;11167;46.988;15.470;2023-08-01T06:42:09;2.12;;;1.82;;
22005;SDS011;11167;46.988;15.470;2023-08-01T06:44:10;2.30;;;2.02;;
22005;SDS011;11167;46.988;15.470;2023-08-01T06:46:11;2.00;;;1.80;;
22005;SDS011;11167;46.988;15.470;2023-08-01T06:48:12;2.35;;;2.15;;
22005;SDS011;11167;46.988;15.470;2023-08-01T06:50:13;2.12;;;1.90;;
22005;SDS011;11167;46.988;15.470;2023-08-01T06:52:15;2.20;;;1.92;;
22005;SDS011;11167;46.988;15.470;2023-08-01T06:54:16;2.35;;;2.00;;
22005;SDS011;11167;46.988;15.470;2023-08-01T06:56:17;2.35;;;2.02;;
22005;SDS011;11167;46.988;15.470;2023-08-01T06:58:18;2.30;;;2.08;;
22005;SDS011;11167;46.988;15.470;2023-08-01T07:00:19;2.10;;;1.90;;
22005;SDS011;11167;46.988;15.470;2023-08-01T07:02:21;2.35;;;2.15;;
22005;SDS011;11167;46.988;15.470;2023-08-01T07:04:22;2.10;;;1.90;;
22005;SDS011;11167;46.988;15.470;2023-08-01T07:06:24;2.27;;;2.08;;
22005;SDS011;11167;46.988;15.470;2023-08-01T07:08:25;2.33;;;2.12;;
22005;SDS011;11167;46.988;15.470;2023-08-01T07:10:26;2.65;;;1.87;;
22005;SDS011;11167;46.988;15.470;2023-08-01T07:12:28;2.17;;;1.98;;
22005;SDS011;11167;46.988;15.470;2023-08-01T07:14:29;2.30;;;2.10;;
22005;SDS011;11167;46.988;15.470;2023-08-01T07:16:30;3.27;;;2.30;;
22005;SDS011;11167;46.988;15.470;2023-08-01T07:18:31;2.55;;;2.08;;
22005;SDS011;11167;46.988;15.470;2023-08-01T07:20:32;2.45;;;2.00;;
22005;SDS011;11167;46.988;15.470;2023-08-01T07:22:33;2.45;;;2.20;;
22005;SDS011;11167;46.988;15.470;2023-08-01T07:24:34;2.10;;;1.90;;
22005;SDS011;11167;46.988;15.470;2023-08-01T07:26:36;2.52;;;1.80;;
22005;SDS011;11167;46.988;15.470;2023-08-01T07:28:37;2.60;;;2.02;;
22005;SDS011;11167;46.988;15.470;2023-08-01T07:30:38;2.00;;;1.77;;
22005;SDS011;11167;46.988;15.470;2023-08-01T07:32:39;2.05;;;1.82;;
22005;SDS011;11167;46.988;15.470;2023-08-01T07:34:40;2.15;;;1.92;;
22005;SDS011;11167;46.988;15.470;2023-08-01T07:36:41;2.25;;;2.02;;
22005;SDS011;11167;46.988;15.470;2023-08-01T07:38:42;2.25;;;1.95;;
22005;SDS011;11167;46.988;15.470;2023-08-01T07:40:43;1.90;;;1.80;;
22005;SDS011;11167;46.988;15.470;2023-08-01T07:42:44;2.50;;;2.30;;
22005;SDS011;11167;46.988;15.470;2023-08-01T07:44:46;2.62;;;2.00;;
22005;SDS011;11167;46.988;15.470;2023-08-01T07:46:48;2.05;;;1.85;;
22005;SDS011;11167;46.988;15.470;2023-08-01T07:48:49;2.15;;;1.95;;
22005;SDS011;11167;46.988;15.470;2023-08-01T07:50:51;2.35;;;2.00;;
22005;SDS011;11167;46.988;15.470;2023-08-01T07:52:52;2.00;;;1.80;;
22005;SDS011;11167;46.988;15.470;2023-08-01T07:54:54;2.47;;;2.20;;
22005;SDS011;11167;46.988;15.470;2023-08-01T07:56:57;2.05;;;1.85;;
22005;SDS011;11167;46.988;15.470;2023-08-01T07:58:58;2.50;;;2.10;;
22005;SDS011;11167;46.988;15.470;2023-08-01T08:01:02;2.35;;;1.70;;
22005;SDS011;11167;46.988;15.470;2023-08-01T08:03:05;2.70;;;2.22;;
22005;SDS011;11167;46.988;15.470;2023-08-01T08:05:08;3.50;;;2.00;;
22005;SDS011;11167;46.988;15.470;2023-08-01T08:07:10;2.02;;;1.82;;
22005;SDS011;11167;46.988;15.470;2023-08-01T08:09:11;2.02;;;1.90;;
22005;SDS011;11167;46.988;15.470;2023-08-01T08:11:12;1.80;;;1.70;;
22005;SDS011;11167;46.988;15.470;2023-08-01T08:13:13;1.92;;;1.82;;
22005;SDS011;11167;46.988;15.470;2023-08-01T08:15:14;1.95;;;1.75;;
22005;SDS011;11167;46.988;15.470;2023-08-01T08:17:16;2.00;;;1.80;;
22005;SDS011;11167;46.988;15.470;2023-08-01T08:19:17;2.27;;;1.90;;
22005;SDS011;11167;46.988;15.470;2023-08-01T08:21:18;2.10;;;1.87;;
22005;SDS011;11167;46.988;15.470;2023-08-01T08:23:19;2.33;;;2.12;;
22005;SDS011;11167;46.988;15.470;2023-08-01T08:25:20;2.20;;;2.00;;
22005;SDS011;11167;46.988;15.470;2023-08-01T08:27:21;2.77;;;1.82;;
22005;SDS011;11167;46.988;15.470;2023-08-01T08:29:22;2.67;;;2.15;;
22005;SDS011;11167;46.988;15.470;2023-08-01T08:31:23;2.15;;;1.80;;
22005;SDS011;11167;46.988;15.470;2023-08-01T08:33:25;2.37;;;1.62;;
22005;SDS011;11167;46.988;15.470;2023-08-01T08:35:26;2.40;;;1.92;;
22005;SDS011;11167;46.988;15.470;2023-08-01T08:37:27;2.00;;;1.77;;
22005;SDS011;11167;46.988;15.470;2023-08-01T08:39:28;1.80;;;1.50;;
22005;SDS011;11167;46.988;15.470;2023-08-01T08:41:29;2.30;;;2.10;;
22005;SDS011;11167;46.988;15.470;2023-08-01T08:43:32;1.98;;;1.77;;
22005;SDS011;11167;46.988;15.470;2023-08-01T08:45:35;2.45;;;1.92;;
22005;SDS011;11167;46.988;15.470;2023-08-01T08:47:38;4.00;;;2.08;;
22005;SDS011;11167;46.988;15.470;2023-08-01T08:49:43;2.40;;;1.95;;
22005;SDS011;11167;46.988;15.470;2023-08-01T08:51:46;2.50;;;2.00;;
22005;SDS011;11167;46.988;15.470;2023-08-01T08:53:47;2.25;;;2.05;;
22005;SDS011;11167;46.988;15.470;2023-08-01T08:55:53;2.10;;;1.90;;
22005;SDS011;11167;46.988;15.470;2023-08-01T08:57:54;1.80;;;1.70;;
22005;SDS011;11167;46.988;15.470;2023-08-01T08:59:56;2.40;;;2.20;;
22005;SDS011;11167;46.988;15.470;2023-08-01T09:01:58;2.40;;;2.20;;
22005;SDS011;11167;46.988;15.470;2023-08-01T09:04:01;2.10;;;1.90;;
22005;SDS011;11167;46.988;15.470;2023-08-01T09:06:04;2.22;;;2.02;;
22005;SDS011;11167;46.988;15.470;2023-08-01T09:08:07;2.20;;;2.00;;
22005;SDS011;11167;46.988;15.470;2023-08-01T09:10:12;2.25;;;2.05;;
22005;SDS011;11167;46.988;15.470;2023-08-01T09:12:13;2.15;;;1.82;;
22005;SDS011;11167;46.988;15.470;2023-08-01T09:14:14;2.33;;;1.90;;
22005;SDS011;11167;46.988;15.470;2023-08-01T09:16:16;2.25;;;2.05;;
22005;SDS011;11167;46.988;15.470;2023-08-01T09:18:17;2.40;;;2.00;;
22005;SDS011;11167;46.988;15.470;2023-08-01T09:20:18;2.15;;;1.95;;
22005;SDS011;11167;46.988;15.470;2023-08-01T09:22:20;3.27;;;2.25;;
22005;SDS011;11167;46.988;15.470;2023-08-01T09:24:21;2.02;;;1.80;;
22005;SDS011;11167;46.988;15.470;2023-08-01T09:26:22;2.52;;;2.00;;
22005;SDS011;11167;46.988;15.470;2023-08-01T09:28:23;2.20;;;2.00;;
22005;SDS011;11167;46.988;15.470;2023-08-01T09:30:25;2.42;;;2.20;;
22005;SDS011;11167;46.988;15.470;2023-08-01T09:32:26;2.22;;;2.02;;
22005;SDS011;11167;46.988;15.470;2023-08-01T09:34:27;2.35;;;2.15;;
22005;SDS011;11167;46.988;15.470;2023-08-01T09:36:28;1.95;;;1.80;;
22005;SDS011;11167;46.988;15.470;2023-08-01T09:38:33;2.92;;;2.00;;
22005;SDS011;11167;46.988;15.470;2023-08-01T09:40:36;3.65;;;2.20;;
22005;SDS011;11167;46.988;15.470;2023-08-01T09:42:42;2.05;;;1.90;;
22005;SDS011;11167;46.988;15.470;2023-08-01T09:44:45;3.33;;;2.60;;
22005;SDS011;11167;46.988;15.470;2023-08-01T09:46:57;2.55;;;2.02;;
22005;SDS011;11167;46.988;15.470;2023-08-01T09:49:09;2.22;;;2.02;;
22005;SDS011;11167;46.988;15.470;2023-08-01T09:51:11;2.58;;;1.77;;
22005;SDS011;11167;46.988;15.470;2023-08-01T09:53:15;2.22;;;2.02;;
22005;SDS011;11167;46.988;15.470;2023-08-01T09:55:16;2.20;;;2.00;;
22005;SDS011;11167;46.988;15.470;2023-08-01T09:57:17;2.10;;;1.90;;
22005;SDS011;11167;46.988;15.470;2023-08-01T09:59:25;1.90;;;1.80;;
22005;SDS011;11167;46.988;15.470;2023-08-01T10:01:24;2.20;;;2.00;;
22005;SDS011;11167;46.988;15.470;2023-08-01T10:03:29;2.12;;;1.92;;
22005;SDS011;11167;46.988;15.470;2023-08-01T10:05:31;2.08;;;1.80;;
22005;SDS011;11167;46.988;15.470;2023-08-01T10:07:34;2.30;;;2.08;;
22005;SDS011;11167;46.988;15.470;2023-08-01T10:09:39;2.08;;;1.90;;
22005;SDS011;11167;46.988;15.470;2023-08-01T10:11:41;2.42;;;2.20;;
22005;SDS011;11167;46.988;15.470;2023-08-01T10:13:44;2.50;;;2.15;;
22005;SDS011;11167;46.988;15.470;2023-08-01T10:15:46;2.40;;;2.20;;
22005;SDS011;11167;46.988;15.470;2023-08-01T10:17:47;2.02;;;1.82;;
22005;SDS011;11167;46.988;15.470;2023-08-01T10:22:11;2.37;;;2.17;;
22005;SDS011;11167;46.988;15.470;2023-08-01T10:24:13;2.08;;;1.87;;
22005;SDS011;11167;46.988;15.470;2023-08-01T10:26:17;2.02;;;1.82;;
22005;SDS011;11167;46.988;15.470;2023-08-01T10:28:19;1.95;;;1.82;;
22005;SDS011;11167;46.988;15.470;2023-08-01T10:30:25;2.67;;;1.90;;
22005;SDS011;11167;46.988;15.470;2023-08-01T10:32:35;2.20;;;2.00;;
22005;SDS011;11167;46.988;15.470;2023-08-01T10:34:38;2.10;;;1.77;;
22005;SDS011;11167;46.988;15.470;2023-08-01T10:36:39;2.37;;;2.17;;
22005;SDS011;11167;46.988;15.470;2023-08-01T10:38:54;1.90;;;1.80;;
22005;SDS011;11167;46.988;15.470;2023-08-01T10:40:56;1.95;;;1.75;;
22005;SDS011;11167;46.988;15.470;2023-08-01T10:42:57;2.33;;;2.05;;
22005;SDS011;11167;46.988;15.470;2023-08-01T10:44:59;1.72;;;1.62;;
22005;SDS011;11167;46.988;15.470;2023-08-01T10:47:01;2.58;;;2.27;;
22005;SDS011;11167;46.988;15.470;2023-08-01T10:51:04;2.25;;;2.05;;
22005;SDS011;11167;46.988;15.470;2023-08-01T10:53:06;2.10;;;1.90;;
22005;SDS011;11167;46.988;15.470;2023-08-01T10:55:09;2.17;;;1.98;;
22005;SDS011;11167;46.988;15.470;2023-08-01T10:57:17;2.17;;;1.90;;
22005;SDS011;11167;46.988;15.470;2023-08-01T10:59:19;1.82;;;1.72;;
22005;SDS011;11167;46.988;15.470;2023-08-01T11:01:21;2.12;;;1.92;;
22005;SDS011;11167;46.988;15.470;2023-08-01T11:03:22;1.75;;;1.65;;
22005;SDS011;11167;46.988;15.470;2023-08-01T11:05:23;2.40;;;2.20;;
22005;SDS011;11167;46.988;15.470;2023-08-01T11:07:26;2.08;;;1.87;;
22005;SDS011;11167;46.988;15.470;2023-08-01T11:09:28;2.02;;;1.85;;
22005;SDS011;11167;46.988;15.470;2023-08-01T11:11:29;2.85;;;2.10;;
22005;SDS011;11167;46.988;15.470;2023-08-01T11:13:30;1.75;;;1.65;;
22005;SDS011;11167;46.988;15.470;2023-08-01T11:15:31;2.40;;;2.20;;
22005;SDS011;11167;46.988;15.470;2023-08-01T11:17:32;2.30;;;2.10;;
22005;SDS011;11167;46.988;15.470;2023-08-01T11:19:33;2.52;;;2.20;;
22005;SDS011;11167;46.988;15.470;2023-08-01T11:21:34;2.17;;;1.90;;
22005;SDS011;11167;46.988;15.470;2023-08-01T11:23:36;1.80;;;1.70;;
22005;SDS011;11167;46.988;15.470;2023-08-01T11:25:38;2.12;;;1.92;;
22005;SDS011;11167;46.988;15.470;2023-08-01T11:27:42;2.20;;;2.00;;
22005;SDS011;11167;46.988;15.470;2023-08-01T11:29:43;2.00;;;1.80;;
22005;SDS011;11167;46.988;15.470;2023-08-01T11:31:54;1.90;;;1.80;;
22005;SDS011;11167;46.988;15.470;2023-08-01T11:34:00;2.27;;;2.02;;
22005;SDS011;11167;46.988;15.470;2023-08-01T11:36:01;2.08;;;1.87;;
22005;SDS011;11167;46.988;15.470;2023-08-01T11:38:03;2.05;;;1.75;;
22005;SDS011;11167;46.988;15.470;2023-08-01T11:40:07;2.12;;;1.80;;
22005;SDS011;11167;46.988;15.470;2023-08-01T11:42:13;1.95;;;1.72;;
22005;SDS011;11167;46.988;15.470;2023-08-01T11:44:18;2.20;;;2.00;;
22005;SDS011;11167;46.988;15.470;2023-08-01T11:46:22;1.95;;;1.75;;
22005;SDS011;11167;46.988;15.470;2023-08-01T11:48:29;2.08;;;1.90;;
22005;SDS011;11167;46.988;15.470;2023-08-01T11:50:30;2.08;;;1.82;;
22005;SDS011;11167;46.988;15.470;2023-08-01T11:52:31;2.08;;;1.87;;
22005;SDS011;11167;46.988;15.470;2023-08-01T11:54:32;2.00;;;1.80;;
22005;SDS011;11167;46.988;15.470;2023-08-01T11:56:37;2.40;;;2.20;;
22005;SDS011;11167;46.988;15.470;2023-08-01T11:58:42;2.12;;;1.92;;
22005;SDS011;11167;46.988;15.470;2023-08-01T12:00:43;2.25;;;2.05;;
22005;SDS011;11167;46.988;15.470;2023-08-01T12:02:44;2.20;;;2.00;;
22005;SDS011;11167;46.988;15.470;2023-08-01T12:04:45;1.75;;;1.65;;
22005;SDS011;11167;46.988;15.470;2023-08-01T12:06:48;1.98;;;1.77;;
22005;SDS011;11167;46.988;15.470;2023-08-01T12:08:50;1.85;;;1.75;;
22005;SDS011;11167;46.988;15.470;2023-08-01T12:10:52;1.60;;;1.50;;